createdAt,value
2022-09-10T00:01:54.505Z,98051.81
2022-09-10T00:04:21.024Z,98050.81
2022-09-10T00:06:47.645Z,98044.69
2022-09-10T00:09:14.307Z,98043.00
2022-09-10T00:11:41.830Z,98044.81
2022-09-10T00:14:15.244Z,98048.31
2022-09-10T00:16:42.196Z,98043.25
2022-09-10T00:19:08.752Z,98058.97
2022-09-10T00:21:35.788Z,98052.75
2022-09-10T00:24:03.590Z,98057.75
2022-09-10T00:26:35.394Z,98061.03
2022-09-10T00:29:02.314Z,98059.19
2022-09-10T00:31:30.598Z,98054.31
2022-09-10T00:33:58.605Z,98062.03
2022-09-10T00:36:33.793Z,98052.31
2022-09-10T00:39:03.590Z,98047.78
2022-09-10T00:41:30.822Z,98050.16
2022-09-10T00:44:02.689Z,98054.25
2022-09-10T00:46:48.445Z,98048.19
2022-09-10T00:49:37.246Z,98045.53
2022-09-10T00:52:04.642Z,98041.00
2022-09-10T00:54:33.709Z,98044.97
2022-09-10T00:57:06.304Z,98044.28
2022-09-10T00:59:34.024Z,98042.28
2022-09-10T01:02:01.260Z,98042.34
2022-09-10T01:04:28.919Z,98041.56
2022-09-10T01:06:56.401Z,98046.00
2022-09-10T01:09:24.277Z,98051.50
2022-09-10T01:11:57.892Z,98054.09
2022-09-10T01:14:49.834Z,98052.50
2022-09-10T01:17:31.296Z,98057.59
2022-09-10T01:20:24.088Z,98056.38
2022-09-10T01:23:44.966Z,98061.88
2022-09-10T01:26:49.156Z,98053.47
2022-09-10T01:29:32.636Z,98053.66
2022-09-10T01:32:20.725Z,98054.63
2022-09-10T01:34:56.247Z,98056.75
2022-09-10T01:37:28.828Z,98053.44
2022-09-10T01:39:57.029Z,98050.31
2022-09-10T01:42:27.865Z,98055.53
2022-09-10T01:44:57.879Z,98050.31
2022-09-10T01:48:02.156Z,98047.31
2022-09-10T01:50:41.053Z,98050.59
2022-09-10T01:53:33.454Z,98060.59
2022-09-10T01:56:19.483Z,98057.31
2022-09-10T01:58:47.006Z,98057.84
2022-09-10T02:01:24.858Z,98066.72
2022-09-10T02:03:56.946Z,98059.72
2022-09-10T02:06:29.708Z,98055.78
2022-09-10T02:08:58.721Z,98057.75
2022-09-10T02:11:25.604Z,98059.66
2022-09-10T02:13:52.392Z,98067.03
2022-09-10T02:16:33.269Z,98064.38
2022-09-10T02:19:02.127Z,98062.66
2022-09-10T02:21:28.720Z,98068.06
2022-09-10T02:23:59.426Z,98068.06
2022-09-10T02:26:28.437Z,98070.72
2022-09-10T02:28:55.211Z,98076.06
2022-09-10T02:31:22.673Z,98082.22
2022-09-10T02:33:49.199Z,98076.78
2022-09-10T02:36:15.674Z,98079.94
2022-09-10T02:38:42.207Z,98080.59
2022-09-10T02:41:09.561Z,98079.25
2022-09-10T02:43:38.397Z,98081.81
2022-09-10T02:46:07.468Z,98087.84
2022-09-10T02:48:34.038Z,98079.94
2022-09-10T02:51:00.843Z,98078.72
2022-09-10T02:53:27.486Z,98077.56
2022-09-10T02:55:54.507Z,98076.13
2022-09-10T02:58:21.089Z,98067.56
2022-09-10T03:00:47.567Z,98071.56
2022-09-10T03:03:14.474Z,98070.03
2022-09-10T03:05:41.788Z,98080.13
2022-09-10T03:08:09.439Z,98078.06
2022-09-10T03:10:36.791Z,98087.50
2022-09-10T03:13:03.542Z,98079.19
2022-09-10T03:15:30.045Z,98079.75
2022-09-10T03:17:56.462Z,98073.47
2022-09-10T03:20:23.088Z,98081.19
2022-09-10T03:22:51.580Z,98067.66
2022-09-10T03:25:22.800Z,98064.84
2022-09-10T03:27:49.383Z,98068.31
2022-09-10T03:30:15.917Z,98066.97
2022-09-10T03:32:43.245Z,98069.66
2022-09-10T03:35:10.382Z,98075.59
2022-09-10T03:37:37.020Z,98069.66
2022-09-10T03:40:04.775Z,98072.16
2022-09-10T03:42:31.626Z,98075.16
2022-09-10T03:44:58.216Z,98078.56
2022-09-10T03:47:25.195Z,98069.84
2022-09-10T03:49:51.853Z,98073.28
2022-09-10T03:52:18.759Z,98074.44
2022-09-10T03:54:45.740Z,98068.34
2022-09-10T03:57:12.388Z,98070.59
2022-09-10T03:59:41.276Z,98058.72
2022-09-10T04:02:09.521Z,98060.72
2022-09-10T04:04:37.475Z,98064.75
2022-09-10T04:07:04.791Z,98069.41
2022-09-10T04:09:32.689Z,98075.06
2022-09-10T04:12:00.098Z,98073.78
2022-09-10T04:14:27.235Z,98072.69
2022-09-10T04:16:54.516Z,98073.81
2022-09-10T04:19:21.221Z,98061.88
2022-09-10T04:21:48.548Z,98069.03
2022-09-10T04:24:15.225Z,98060.47
2022-09-10T04:26:41.822Z,98063.91
2022-09-10T04:29:08.785Z,98071.19
2022-09-10T04:31:35.495Z,98070.31
2022-09-10T04:34:02.242Z,98079.78
2022-09-10T04:36:29.587Z,98072.03
2022-09-10T04:38:56.579Z,98072.78
2022-09-10T04:41:23.371Z,98073.56
2022-09-10T04:43:50.182Z,98077.75
2022-09-10T04:46:17.756Z,98078.47
2022-09-10T04:48:44.518Z,98076.78
2022-09-10T04:51:17.439Z,98080.97
2022-09-10T04:53:45.846Z,98084.47
2022-09-10T04:56:12.805Z,98078.22
2022-09-10T04:58:40.195Z,98080.78
2022-09-10T05:01:07.656Z,98074.56
2022-09-10T05:03:34.558Z,98076.75
2022-09-10T05:06:01.560Z,98078.47
2022-09-10T05:08:28.216Z,98085.34
2022-09-10T05:10:55.196Z,98076.19
2022-09-10T05:13:22.084Z,98072.91
2022-09-10T05:15:49.292Z,98071.88
2022-09-10T05:18:16.786Z,98067.44
2022-09-10T05:20:44.864Z,98070.81
2022-09-10T05:23:11.559Z,98066.88
2022-09-10T05:25:38.237Z,98065.88
2022-09-10T05:28:06.040Z,98074.03
2022-09-10T05:30:32.969Z,98068.44
2022-09-10T05:33:02.946Z,98077.03
2022-09-10T05:35:30.431Z,98069.28
2022-09-10T05:37:57.726Z,98074.28
2022-09-10T05:40:25.547Z,98075.03
2022-09-10T05:42:52.977Z,98068.41
2022-09-10T05:45:20.493Z,98074.31
2022-09-10T05:47:47.587Z,98073.25
2022-09-10T05:50:14.700Z,98072.16
2022-09-10T05:52:41.466Z,98061.25
2022-09-10T05:55:08.432Z,98065.72
2022-09-10T05:57:35.570Z,98078.81
2022-09-10T06:00:08.611Z,98074.00
2022-09-10T06:02:35.902Z,98071.97
2022-09-10T06:05:02.667Z,98072.25
2022-09-10T06:07:30.516Z,98067.59
2022-09-10T06:10:03.089Z,98070.69
2022-09-10T06:12:29.748Z,98069.44
2022-09-10T06:14:56.536Z,98071.94
2022-09-10T06:17:23.128Z,98075.38
2022-09-10T06:19:51.972Z,98077.09
2022-09-10T06:22:18.551Z,98074.72
2022-09-10T06:24:47.991Z,98076.41
2022-09-10T06:27:14.995Z,98086.13
2022-09-10T06:29:41.537Z,98083.50
2022-09-10T06:32:08.141Z,98089.63
2022-09-10T06:34:35.996Z,98084.78
2022-09-10T06:37:04.375Z,98084.69
2022-09-10T06:39:31.239Z,98084.66
2022-09-10T06:41:57.783Z,98084.75
2022-09-10T06:44:24.326Z,98084.06
2022-09-10T06:49:39.889Z,98075.81
2022-09-10T06:52:06.363Z,98079.78
2022-09-10T06:54:32.967Z,98080.56
2022-09-10T06:57:01.444Z,98075.03
2022-09-10T06:59:28.084Z,98071.06
2022-09-10T07:01:55.371Z,98066.13
2022-09-10T07:04:21.953Z,98083.13
2022-09-10T07:06:48.636Z,98073.09
2022-09-10T07:09:15.733Z,98076.78
2022-09-10T07:11:42.452Z,98083.31
2022-09-10T07:14:13.060Z,98077.72
2022-09-10T07:16:44.565Z,98086.75
2022-09-10T07:19:15.103Z,98089.13
2022-09-10T07:21:41.827Z,98091.53
2022-09-10T07:24:11.117Z,98093.44
2022-09-10T07:26:37.877Z,98093.59
2022-09-10T07:29:04.910Z,98090.06
2022-09-10T07:31:35.990Z,98093.00
2022-09-10T07:34:03.258Z,98094.72
2022-09-10T07:36:30.860Z,98095.78
2022-09-10T07:38:59.085Z,98092.88
2022-09-10T07:41:29.594Z,98099.22
2022-09-10T07:43:56.497Z,98097.09
2022-09-10T07:46:25.701Z,98098.59
2022-09-10T07:49:00.423Z,98097.50
2022-09-10T07:51:29.578Z,98107.53
2022-09-10T07:53:58.328Z,98104.31
2022-09-10T07:56:26.091Z,98113.56
2022-09-10T07:58:54.018Z,98115.25
2022-09-10T08:01:20.984Z,98115.16
2022-09-10T08:03:47.571Z,98122.53
2022-09-10T08:06:14.648Z,98113.19
2022-09-10T08:08:42.760Z,98116.81
2022-09-10T08:11:12.802Z,98120.66
2022-09-10T08:13:45.099Z,98129.16
2022-09-10T08:16:14.846Z,98127.28
2022-09-10T08:18:43.185Z,98127.66
2022-09-10T08:21:10.891Z,98128.25
2022-09-10T08:23:39.816Z,98127.38
2022-09-10T08:26:08.241Z,98125.75
2022-09-10T08:28:35.655Z,98132.72
2022-09-10T08:31:07.741Z,98128.34
2022-09-10T08:33:36.310Z,98126.09
2022-09-10T08:36:04.834Z,98128.19
2022-09-10T08:38:42.276Z,98124.38
2022-09-10T08:41:13.892Z,98127.19
2022-09-10T08:43:55.941Z,98126.59
2022-09-10T08:46:25.790Z,98132.25
2022-09-10T08:49:11.756Z,98130.88
2022-09-10T08:51:46.769Z,98131.09
2022-09-10T08:54:38.248Z,98132.06
2022-09-10T08:57:11.890Z,98131.66
2022-09-10T08:59:45.511Z,98131.00
2022-09-10T09:02:47.377Z,98131.75
2022-09-10T09:05:19.493Z,98142.38
2022-09-10T09:07:48.502Z,98138.94
2022-09-10T09:10:54.326Z,98144.88
2022-09-10T09:13:33.056Z,98145.50
2022-09-10T09:16:11.672Z,98151.59
2022-09-10T09:19:02.305Z,98151.44
2022-09-10T09:22:07.267Z,98148.81
2022-09-10T09:24:57.949Z,98140.72
2022-09-10T09:27:29.858Z,98138.50
2022-09-10T09:29:59.462Z,98152.25
2022-09-10T09:32:28.742Z,98149.47
2022-09-10T09:35:05.487Z,98150.88
2022-09-10T09:37:34.666Z,98144.53
2022-09-10T09:40:15.216Z,98142.63
2022-09-10T09:42:50.059Z,98152.72
2022-09-10T09:45:23.504Z,98150.13
2022-09-10T09:47:50.983Z,98145.22
2022-09-10T09:50:20.728Z,98140.25
2022-09-10T09:52:47.922Z,98133.59
2022-09-10T09:55:43.724Z,98137.81
2022-09-10T09:58:22.275Z,98137.16
2022-09-10T10:00:53.153Z,98132.41
2022-09-10T10:03:25.661Z,98128.19
2022-09-10T10:06:02.435Z,98119.06
2022-09-10T10:08:34.181Z,98119.25
2022-09-10T10:11:01.628Z,98115.28
2022-09-10T10:13:40.079Z,98109.16
2022-09-10T10:16:38.068Z,98110.06
2022-09-10T10:19:34.315Z,98110.81
2022-09-10T10:22:19.567Z,98101.41
2022-09-10T10:24:49.262Z,98106.31
2022-09-10T10:27:43.115Z,98100.53
2022-09-10T10:30:13.099Z,98095.34
2022-09-10T10:32:44.924Z,98095.09
2022-09-10T10:35:20.362Z,98082.41
2022-09-10T10:38:17.447Z,98085.91
2022-09-10T10:41:17.121Z,98083.25
2022-09-10T10:44:13.392Z,98083.03
2022-09-10T10:46:54.108Z,98092.09
2022-09-10T10:49:26.995Z,98102.34
2022-09-10T10:52:04.178Z,98094.22
2022-09-10T10:55:02.264Z,98105.31
2022-09-10T10:58:14.341Z,98111.53
2022-09-10T11:00:57.815Z,98114.03
2022-09-10T11:03:57.419Z,98127.53
2022-09-10T11:06:29.296Z,98126.75
2022-09-10T11:08:59.582Z,98130.09
2022-09-10T11:11:55.363Z,98136.53
2022-09-10T11:14:36.186Z,98139.53
2022-09-10T11:17:10.416Z,98134.41
2022-09-10T11:19:53.333Z,98127.72
2022-09-10T11:22:45.453Z,98126.59
2022-09-10T11:25:22.862Z,98116.16
2022-09-10T11:27:55.422Z,98117.88
2022-09-10T11:30:22.436Z,98114.75
2022-09-10T11:33:11.426Z,98111.06
2022-09-10T11:35:44.549Z,98101.09
2022-09-10T11:38:29.226Z,98093.59
2022-09-10T11:41:03.940Z,98096.56
2022-09-10T11:43:50.380Z,98096.19
2022-09-10T11:46:23.660Z,98103.06
2022-09-10T11:48:55.410Z,98096.81
2022-09-10T11:51:28.133Z,98084.50
2022-09-10T11:53:55.150Z,98092.69
2022-09-10T11:56:35.399Z,98081.09
2022-09-10T11:59:17.160Z,98072.41
2022-09-10T12:02:07.947Z,98066.88
2022-09-10T12:04:57.883Z,98063.00
2022-09-10T12:07:33.669Z,98057.53
2022-09-10T12:10:18.632Z,98068.44
2022-09-10T12:12:49.211Z,98071.72
2022-09-10T12:15:34.232Z,98076.63
2022-09-10T12:18:14.847Z,98062.59
2022-09-10T12:21:08.821Z,98058.50
2022-09-10T12:23:40.012Z,98070.25
2022-09-10T12:26:11.594Z,98056.06
2022-09-10T12:28:53.193Z,98076.66
2022-09-10T12:31:21.732Z,98061.03
2022-09-10T12:33:48.376Z,98064.81
2022-09-10T12:36:34.931Z,98059.16
2022-09-10T12:39:28.504Z,98062.28
2022-09-10T12:42:01.783Z,98062.88
2022-09-10T12:44:34.456Z,98055.75
2022-09-10T12:47:16.258Z,98062.28
2022-09-10T12:50:04.656Z,98057.38
2022-09-10T12:52:51.052Z,98058.84
2022-09-10T12:55:36.249Z,98058.88
2022-09-10T12:58:03.321Z,98058.78
2022-09-10T13:00:50.717Z,98056.91
2022-09-10T13:03:20.165Z,98052.13
2022-09-10T13:05:47.701Z,98048.03
2022-09-10T13:08:47.848Z,98043.78
2022-09-10T13:11:22.747Z,98050.91
2022-09-10T13:13:50.145Z,98058.00
2022-09-10T13:16:41.514Z,98063.91
2022-09-10T13:19:14.095Z,98058.78
2022-09-10T13:21:40.772Z,98057.00
2022-09-10T13:24:36.423Z,98046.81
2022-09-10T13:27:17.962Z,98050.84
2022-09-10T13:29:54.859Z,98053.00
2022-09-10T13:32:34.629Z,98053.19
2022-09-10T13:35:17.057Z,98059.31
2022-09-10T13:38:02.825Z,98058.50
2022-09-10T13:41:06.887Z,98045.66
2022-09-10T13:43:48.822Z,98049.09
2022-09-10T13:46:31.216Z,98046.50
2022-09-10T13:49:10.035Z,98053.31
2022-09-10T13:51:47.787Z,98046.00
2022-09-10T13:54:30.171Z,98047.84
2022-09-10T13:57:03.343Z,98050.78
2022-09-10T13:59:33.415Z,98054.03
2022-09-10T14:01:59.975Z,98055.69
2022-09-10T14:04:28.226Z,98050.34
2022-09-10T14:07:03.417Z,98056.00
2022-09-10T14:09:32.597Z,98052.28
2022-09-10T14:12:03.674Z,98052.09
2022-09-10T14:14:35.348Z,98054.41
2022-09-10T14:17:10.406Z,98054.41
2022-09-10T14:19:52.615Z,98057.72
2022-09-10T14:22:26.100Z,98046.94
2022-09-10T14:24:55.583Z,98050.13
2022-09-10T14:27:32.725Z,98065.13
2022-09-10T14:30:18.490Z,98069.69
2022-09-10T14:32:46.333Z,98064.00
2022-09-10T14:35:39.269Z,98058.56
2022-09-10T14:38:31.648Z,98059.75
2022-09-10T14:41:04.329Z,98057.00
2022-09-10T14:43:39.085Z,98059.19
2022-09-10T14:46:11.740Z,98057.38
2022-09-10T14:48:39.500Z,98068.66
2022-09-10T14:51:12.835Z,98061.31
2022-09-10T14:53:41.445Z,98053.94
2022-09-10T14:56:44.328Z,98056.94
2022-09-10T14:59:31.210Z,98053.16
2022-09-10T15:02:00.873Z,98054.94
2022-09-10T15:04:30.315Z,98058.38
2022-09-10T15:07:00.661Z,98062.81
2022-09-10T15:09:28.649Z,98072.13
2022-09-10T15:12:26.175Z,98059.94
2022-09-10T15:14:52.629Z,98063.75
2022-09-10T15:17:19.591Z,98066.41
2022-09-10T15:19:50.124Z,98061.28
2022-09-10T15:22:23.564Z,98061.38
2022-09-10T15:25:09.008Z,98062.41
2022-09-10T15:27:37.105Z,98058.81
2022-09-10T15:30:05.422Z,98063.84
2022-09-10T15:32:31.989Z,98064.50
2022-09-10T15:34:59.119Z,98069.06
2022-09-10T15:37:25.815Z,98061.00
2022-09-10T15:39:53.976Z,98066.03
2022-09-10T15:42:21.213Z,98066.59
2022-09-10T15:44:47.809Z,98068.13
2022-09-10T15:47:15.023Z,98064.50
2022-09-10T15:49:41.707Z,98071.19
2022-09-10T15:52:08.476Z,98070.22
2022-09-10T15:54:35.146Z,98067.25
2022-09-10T15:57:01.695Z,98073.91
2022-09-10T15:59:28.603Z,98068.13
2022-09-10T16:01:55.258Z,98068.13
2022-09-10T16:04:21.970Z,98072.69
2022-09-10T16:06:48.503Z,98073.72
2022-09-10T16:09:15.235Z,98080.19
2022-09-10T16:11:42.874Z,98078.41
2022-09-10T16:14:12.787Z,98078.78
2022-09-10T16:16:41.091Z,98078.78
2022-09-10T16:19:09.292Z,98081.06
2022-09-10T16:21:37.549Z,98081.91
2022-09-10T16:24:06.153Z,98087.09
2022-09-10T16:26:35.922Z,98083.34
2022-09-10T16:29:06.518Z,98085.50
2022-09-10T16:31:39.149Z,98086.09
2022-09-10T16:34:08.919Z,98091.13
2022-09-10T16:36:37.232Z,98091.78
2022-09-10T16:39:07.396Z,98087.97
2022-09-10T16:41:34.060Z,98087.66
2022-09-10T16:44:00.950Z,98089.88
2022-09-10T16:46:28.265Z,98089.38
2022-09-10T16:48:55.969Z,98100.06
2022-09-10T16:51:24.671Z,98097.31
2022-09-10T16:54:02.509Z,98098.63
2022-09-10T16:56:38.644Z,98101.22
2022-09-10T16:59:09.772Z,98106.88
2022-09-10T17:01:37.623Z,98100.63
2022-09-10T17:04:07.624Z,98102.19
2022-09-10T17:06:35.220Z,98099.59
2022-09-10T17:09:02.635Z,98094.72
2022-09-10T17:11:32.323Z,98097.91
2022-09-10T17:14:01.827Z,98094.31
2022-09-10T17:16:33.691Z,98091.84
2022-09-10T17:19:03.654Z,98092.69
2022-09-10T17:21:32.287Z,98092.19
2022-09-10T17:23:59.564Z,98089.53
2022-09-10T17:26:27.221Z,98088.00
2022-09-10T17:28:56.063Z,98106.09
2022-09-10T17:31:23.555Z,98096.91
2022-09-10T17:33:50.711Z,98095.66
2022-09-10T17:36:17.855Z,98100.16
2022-09-10T17:38:45.059Z,98097.94
2022-09-10T17:41:14.600Z,98100.69
2022-09-10T17:43:43.514Z,98100.53
2022-09-10T17:46:12.458Z,98106.53
2022-09-10T17:48:39.283Z,98107.56
2022-09-10T17:51:07.280Z,98111.84
2022-09-10T17:53:34.826Z,98106.19
2022-09-10T17:56:06.099Z,98114.16
2022-09-10T17:58:33.409Z,98106.00
2022-09-10T18:01:03.257Z,98114.16
2022-09-10T18:03:30.277Z,98112.53
2022-09-10T18:05:57.296Z,98113.28
2022-09-10T18:08:23.966Z,98120.31
2022-09-10T18:10:50.885Z,98124.34
2022-09-10T18:13:19.533Z,98130.50
2022-09-10T18:15:49.404Z,98126.91
2022-09-10T18:18:16.009Z,98129.13
2022-09-10T18:20:43.026Z,98133.78
2022-09-10T18:23:09.800Z,98133.25
2022-09-10T18:25:36.473Z,98131.19
2022-09-10T18:28:03.193Z,98135.19
2022-09-10T18:30:29.952Z,98142.81
2022-09-10T18:32:56.406Z,98142.97
2022-09-10T18:35:23.129Z,98143.50
2022-09-10T18:37:52.517Z,98143.25
2022-09-10T18:40:19.729Z,98155.66
2022-09-10T18:42:47.915Z,98152.91
2022-09-10T18:45:14.983Z,98157.69
2022-09-10T18:47:45.386Z,98157.56
2022-09-10T18:50:13.409Z,98162.16
2022-09-10T18:52:40.230Z,98161.47
2022-09-10T18:55:07.301Z,98165.06
2022-09-10T18:57:33.918Z,98165.75
2022-09-10T19:00:00.427Z,98169.53
2022-09-10T19:02:27.194Z,98185.13
2022-09-10T19:05:10.593Z,98176.38
2022-09-10T19:07:38.386Z,98176.53
2022-09-10T19:10:07.181Z,98180.28
2022-09-10T19:12:33.939Z,98183.00
2022-09-10T19:15:00.575Z,98177.16
2022-09-10T19:17:27.117Z,98181.13
2022-09-10T19:19:53.803Z,98177.78
2022-09-10T19:22:20.541Z,98178.94
2022-09-10T19:24:55.719Z,98177.16
2022-09-10T19:27:23.620Z,98181.44
2022-09-10T19:29:50.543Z,98173.59
2022-09-10T19:32:19.704Z,98169.19
2022-09-10T19:34:49.689Z,98165.84
2022-09-10T19:37:17.265Z,98169.59
2022-09-10T19:39:44.793Z,98171.34
2022-09-10T19:42:12.746Z,98173.03
2022-09-10T19:44:39.415Z,98167.97
2022-09-10T19:47:06.110Z,98167.19
2022-09-10T19:49:34.187Z,98170.25
2022-09-10T19:52:00.923Z,98171.28
2022-09-10T19:54:28.607Z,98168.84
2022-09-10T19:56:56.591Z,98177.06
2022-09-10T19:59:23.292Z,98177.38
2022-09-10T20:01:49.979Z,98174.72
2022-09-10T20:04:16.911Z,98171.97
2022-09-10T20:06:45.863Z,98170.19
2022-09-10T20:09:12.479Z,98174.53
2022-09-10T20:11:39.071Z,98177.13
2022-09-10T20:14:08.608Z,98169.78
2022-09-10T20:16:40.191Z,98171.91
2022-09-10T20:19:07.199Z,98179.25
2022-09-10T20:21:35.120Z,98177.69
2022-09-10T20:24:01.821Z,98179.56
2022-09-10T20:26:33.455Z,98179.63
2022-09-10T20:29:03.994Z,98178.84
2022-09-10T20:31:32.719Z,98185.81
2022-09-10T20:34:03.473Z,98182.69
2022-09-10T20:36:31.420Z,98176.56
2022-09-10T20:38:58.553Z,98188.19
2022-09-10T20:41:30.097Z,98182.22
2022-09-10T20:43:58.808Z,98184.91
2022-09-10T20:46:27.289Z,98176.19
2022-09-10T20:48:54.261Z,98179.22
2022-09-10T20:51:21.368Z,98175.53
2022-09-10T20:53:48.550Z,98181.16
2022-09-10T20:56:18.492Z,98173.69
2022-09-10T20:58:46.586Z,98177.59
2022-09-10T21:01:16.872Z,98174.13
2022-09-10T21:03:43.587Z,98168.25
2022-09-10T21:06:11.822Z,98177.59
2022-09-10T21:08:39.838Z,98182.31
2022-09-10T21:11:12.412Z,98180.00
2022-09-10T21:13:47.604Z,98174.88
2022-09-10T21:16:17.220Z,98177.59
2022-09-10T21:18:53.584Z,98179.75
2022-09-10T21:21:23.644Z,98176.59
2022-09-10T21:23:52.016Z,98180.72
2022-09-10T21:26:21.035Z,98179.25
2022-09-10T21:28:48.587Z,98180.50
2022-09-10T21:31:15.260Z,98183.94
2022-09-10T21:33:43.468Z,98181.16
2022-09-10T21:36:18.725Z,98182.00
2022-09-10T21:38:56.412Z,98181.03
2022-09-10T21:41:31.219Z,98175.59
2022-09-10T21:43:58.686Z,98175.00
2022-09-10T21:46:25.513Z,98180.44
2022-09-10T21:48:52.360Z,98190.28
2022-09-10T21:51:20.361Z,98181.38
2022-09-10T21:53:47.764Z,98188.44
2022-09-10T21:56:16.739Z,98195.56
2022-09-10T21:58:45.650Z,98186.84
2022-09-10T22:01:14.874Z,98190.28
2022-09-10T22:03:41.852Z,98197.44
2022-09-10T22:06:15.706Z,98191.28
2022-09-10T22:08:44.999Z,98196.84
2022-09-10T22:11:17.122Z,98201.94
2022-09-10T22:13:45.424Z,98202.88
2022-09-10T22:16:12.775Z,98204.50
2022-09-10T22:18:40.023Z,98206.72
2022-09-10T22:21:06.878Z,98201.53
2022-09-10T22:23:38.124Z,98207.09
2022-09-10T22:26:13.473Z,98203.63
2022-09-10T22:28:40.576Z,98208.91
2022-09-10T22:31:19.182Z,98215.19
2022-09-10T22:33:50.908Z,98212.47
2022-09-10T22:36:18.867Z,98215.00
2022-09-10T22:38:50.513Z,98211.41
2022-09-10T22:41:17.371Z,98203.50
2022-09-10T22:43:43.956Z,98206.97
2022-09-10T22:46:11.045Z,98205.22
2022-09-10T22:48:40.095Z,98213.41
2022-09-10T22:51:08.629Z,98214.09
2022-09-10T22:53:35.467Z,98211.69
2022-09-10T22:56:02.513Z,98216.81
2022-09-10T22:58:29.251Z,98221.50
2022-09-10T23:00:56.365Z,98219.72
2022-09-10T23:03:23.219Z,98218.19
2022-09-10T23:05:49.848Z,98218.19
2022-09-10T23:08:17.122Z,98225.31
2022-09-10T23:10:43.815Z,98226.25
2022-09-10T23:13:10.613Z,98220.03
2022-09-10T23:15:37.335Z,98221.03
2022-09-10T23:18:03.849Z,98230.59
2022-09-10T23:20:30.348Z,98223.53
2022-09-10T23:22:56.897Z,98231.41
2022-09-10T23:25:23.466Z,98241.19
2022-09-10T23:27:51.290Z,98236.03
2022-09-10T23:30:18.176Z,98237.75
2022-09-10T23:32:45.420Z,98239.72
2022-09-10T23:35:12.120Z,98244.28
2022-09-10T23:37:38.716Z,98246.38
2022-09-10T23:40:06.751Z,98240.25
2022-09-10T23:42:35.077Z,98236.94
2022-09-10T23:45:01.766Z,98246.03
2022-09-10T23:47:28.351Z,98243.38
2022-09-10T23:49:54.991Z,98247.88
2022-09-10T23:52:21.872Z,98242.59
2022-09-10T23:54:49.092Z,98244.94
2022-09-10T23:57:15.749Z,98239.41
2022-09-10T23:59:42.431Z,98243.34
